createdAt,value
2019-02-24T00:01:52.338Z,12.17
2019-02-24T00:04:24.489Z,16.60
2019-02-24T00:06:54.945Z,15.03
2019-02-24T00:09:27.111Z,13.53
2019-02-24T00:11:57.550Z,14.70
2019-02-24T00:14:27.984Z,18.60
2019-02-24T00:16:58.461Z,17.30
2019-02-24T00:19:28.883Z,18.30
2019-02-24T00:21:59.369Z,18.73
2019-02-24T00:24:29.866Z,17.10
2019-02-24T00:27:00.332Z,13.73
2019-02-24T00:29:30.753Z,16.03
2019-02-24T00:32:01.243Z,10.80
2019-02-24T00:34:31.665Z,15.63
2019-02-24T00:37:02.097Z,12.73
2019-02-24T00:39:32.582Z,14.60
2019-02-24T00:42:02.989Z,12.27
2019-02-24T00:44:33.573Z,13.07
2019-02-24T00:47:04.000Z,13.77
2019-02-24T00:49:34.476Z,9.70
2019-02-24T00:52:04.921Z,13.23
2019-02-24T00:54:43.775Z,17.80
2019-02-24T00:57:21.669Z,14.07
2019-02-24T00:59:52.050Z,15.60
2019-02-24T01:02:29.362Z,14.00
2019-02-24T01:05:01.569Z,20.23
2019-02-24T01:07:31.969Z,15.50
2019-02-24T01:10:02.490Z,16.67
2019-02-24T01:12:33.451Z,23.10
2019-02-24T01:15:04.220Z,29.07
2019-02-24T01:17:34.616Z,21.77
2019-02-24T01:20:07.450Z,19.97
2019-02-24T01:22:37.915Z,19.20
2019-02-24T01:25:08.449Z,21.53
2019-02-24T01:27:38.935Z,14.97
2019-02-24T01:30:10.903Z,19.23
2019-02-24T01:32:41.376Z,26.17
2019-02-24T01:35:11.816Z,33.00
2019-02-24T01:37:42.214Z,17.57
2019-02-24T01:40:12.622Z,21.70
2019-02-24T01:42:43.049Z,42.87
2019-02-24T01:45:13.474Z,21.00
2019-02-24T01:47:43.866Z,34.70
2019-02-24T01:50:14.326Z,44.70
2019-02-24T01:52:44.756Z,33.40
2019-02-24T01:55:15.251Z,36.17
2019-02-24T01:57:48.693Z,36.40
2019-02-24T02:00:19.310Z,33.73
2019-02-24T02:02:49.717Z,37.13
2019-02-24T02:05:20.262Z,44.53
2019-02-24T02:07:50.654Z,33.43
2019-02-24T02:10:21.222Z,34.57
2019-02-24T02:12:51.680Z,37.07
2019-02-24T02:15:22.175Z,32.07
2019-02-24T02:17:53.926Z,36.80
2019-02-24T02:20:24.476Z,39.80
2019-02-24T02:22:54.940Z,26.93
2019-02-24T02:25:26.840Z,21.40
2019-02-24T02:27:57.204Z,21.50
2019-02-24T02:30:27.671Z,35.83
2019-02-24T02:32:58.123Z,18.70
2019-02-24T02:35:28.594Z,22.87
2019-02-24T02:37:59.012Z,23.33
2019-02-24T02:40:29.512Z,40.97
2019-02-24T02:42:59.970Z,25.97
2019-02-24T02:45:30.448Z,26.00
2019-02-24T02:48:00.877Z,23.97
2019-02-24T02:50:31.313Z,32.70
2019-02-24T02:53:01.693Z,23.83
2019-02-24T02:55:32.160Z,21.17
2019-02-24T02:58:02.662Z,26.23
2019-02-24T03:00:36.804Z,26.67
2019-02-24T03:03:07.199Z,15.70
2019-02-24T03:05:37.597Z,24.83
2019-02-24T03:08:09.601Z,16.70
2019-02-24T03:10:39.977Z,17.60
2019-02-24T03:13:10.423Z,19.30
2019-02-24T03:15:40.812Z,17.70
2019-02-24T03:18:11.240Z,20.73
2019-02-24T03:20:41.637Z,33.57
2019-02-24T03:23:13.707Z,26.20
2019-02-24T03:25:44.091Z,19.20
2019-02-24T03:28:14.497Z,23.17
2019-02-24T03:30:44.920Z,22.40
2019-02-24T03:33:15.370Z,31.77
2019-02-24T03:35:45.780Z,42.10
2019-02-24T03:38:16.260Z,37.13
2019-02-24T03:40:46.671Z,37.97
2019-02-24T03:43:17.113Z,41.07
2019-02-24T03:45:47.486Z,47.88
2019-02-24T03:48:17.957Z,38.40
2019-02-24T03:50:48.389Z,37.30
2019-02-24T03:53:18.861Z,40.87
2019-02-24T03:55:49.259Z,42.17
2019-02-24T03:58:19.812Z,52.93
2019-02-24T04:00:50.313Z,50.10
2019-02-24T04:03:20.725Z,50.37
2019-02-24T04:05:51.188Z,46.00
2019-02-24T04:08:21.625Z,41.67
2019-02-24T04:11:02.438Z,41.27
2019-02-24T04:13:32.862Z,39.23
2019-02-24T04:16:03.346Z,40.77
2019-02-24T04:18:33.762Z,36.57
2019-02-24T04:21:04.181Z,32.77
2019-02-24T04:23:34.565Z,28.13
2019-02-24T04:26:05.059Z,35.57
2019-02-24T04:28:35.488Z,23.17
2019-02-24T04:31:05.903Z,24.53
2019-02-24T04:33:36.343Z,28.37
2019-02-24T04:36:06.778Z,34.50
2019-02-24T04:38:37.523Z,32.38
2019-02-24T04:41:07.981Z,39.43
2019-02-24T04:43:38.398Z,31.53
2019-02-24T04:46:08.872Z,31.83
2019-02-24T04:48:39.291Z,28.63
2019-02-24T04:51:09.701Z,35.27
2019-02-24T04:53:40.164Z,40.53
2019-02-24T04:56:10.570Z,40.70
2019-02-24T04:58:40.948Z,40.60
2019-02-24T05:01:11.479Z,42.40
2019-02-24T05:03:41.893Z,40.77
2019-02-24T05:06:12.336Z,33.30
2019-02-24T05:08:43.088Z,40.80
2019-02-24T05:11:13.525Z,43.30
2019-02-24T05:13:43.916Z,38.07
2019-02-24T05:16:14.375Z,38.63
2019-02-24T05:18:44.789Z,39.73
2019-02-24T05:21:15.244Z,48.50
2019-02-24T05:23:45.662Z,46.37
2019-02-24T05:26:16.097Z,47.17
2019-02-24T05:28:48.144Z,54.87
2019-02-24T05:31:18.609Z,60.63
2019-02-24T05:33:49.018Z,56.00
2019-02-24T05:36:19.464Z,54.80
2019-02-24T05:38:50.901Z,53.97
2019-02-24T05:41:21.366Z,46.23
2019-02-24T05:43:51.774Z,44.33
2019-02-24T05:46:24.882Z,41.87
2019-02-24T05:48:55.785Z,49.53
2019-02-24T05:51:26.353Z,39.90
2019-02-24T05:53:56.704Z,36.13
2019-02-24T05:56:28.717Z,40.33
2019-02-24T05:58:59.384Z,37.43
2019-02-24T06:01:29.945Z,28.70
2019-02-24T06:04:00.369Z,25.33
2019-02-24T06:06:31.892Z,31.03
2019-02-24T06:09:02.351Z,27.77
2019-02-24T06:11:32.861Z,28.53
2019-02-24T06:14:03.306Z,24.80
2019-02-24T06:16:33.720Z,33.47
2019-02-24T06:19:04.133Z,33.33
2019-02-24T06:21:34.664Z,31.82
2019-02-24T06:24:07.728Z,30.80
2019-02-24T06:26:38.369Z,33.17
2019-02-24T06:29:08.781Z,23.63
2019-02-24T06:31:39.225Z,21.57
2019-02-24T06:34:09.664Z,25.87
2019-02-24T06:36:40.848Z,22.43
2019-02-24T06:39:12.897Z,22.17
2019-02-24T06:41:43.297Z,24.10
2019-02-24T06:44:13.746Z,21.77
2019-02-24T06:46:44.222Z,21.97
2019-02-24T06:49:15.070Z,21.77
2019-02-24T06:51:46.512Z,19.90
2019-02-24T06:54:47.153Z,23.77
2019-02-24T06:57:08.855Z,19.60
2019-02-24T06:59:44.179Z,26.03
2019-02-24T07:02:20.262Z,25.40
2019-02-24T07:04:55.884Z,26.23
2019-02-24T07:07:28.314Z,22.27
2019-02-24T07:10:05.636Z,26.27
2019-02-24T07:12:45.315Z,27.63
2019-02-24T07:15:15.991Z,21.00
2019-02-24T07:17:46.470Z,24.70
2019-02-24T07:20:16.932Z,22.50
2019-02-24T07:22:47.421Z,18.23
2019-02-24T07:25:19.443Z,22.47
2019-02-24T07:27:51.344Z,19.67
2019-02-24T07:30:23.749Z,22.27
2019-02-24T07:32:53.909Z,23.90
2019-02-24T07:35:24.421Z,22.33
2019-02-24T07:37:54.858Z,23.10
2019-02-24T07:40:25.351Z,25.80
2019-02-24T07:42:57.402Z,24.23
2019-02-24T07:45:32.205Z,19.47
2019-02-24T07:48:04.763Z,24.47
2019-02-24T07:50:35.300Z,25.43
2019-02-24T07:53:05.855Z,23.53
2019-02-24T07:55:36.362Z,23.57
2019-02-24T07:58:06.766Z,23.97
2019-02-24T08:00:37.155Z,21.57
2019-02-24T08:03:07.720Z,22.23
2019-02-24T08:05:38.167Z,21.90
2019-02-24T08:08:16.287Z,27.97
2019-02-24T08:10:40.770Z,23.97
2019-02-24T08:13:11.197Z,26.50
2019-02-24T08:15:41.620Z,26.60
2019-02-24T08:18:12.176Z,20.70
2019-02-24T08:20:42.681Z,19.90
2019-02-24T08:23:13.135Z,23.23
2019-02-24T08:25:43.605Z,15.47
2019-02-24T08:28:14.016Z,18.07
2019-02-24T08:30:44.478Z,15.27
2019-02-24T08:33:14.932Z,18.00
2019-02-24T08:35:45.426Z,15.00
2019-02-24T08:38:17.456Z,15.67
2019-02-24T08:40:47.910Z,13.27
2019-02-24T08:43:18.370Z,19.07
2019-02-24T08:45:48.813Z,10.37
2019-02-24T08:48:19.400Z,12.17
2019-02-24T08:50:49.823Z,17.67
2019-02-24T08:53:20.284Z,11.30
2019-02-24T08:55:50.692Z,12.87
2019-02-24T08:58:21.244Z,11.07
2019-02-24T09:00:51.746Z,9.07
2019-02-24T09:03:22.488Z,15.73
2019-02-24T09:05:54.632Z,9.37
2019-02-24T09:08:26.409Z,16.27
2019-02-24T09:11:00.208Z,15.13
2019-02-24T09:13:34.710Z,7.33
2019-02-24T09:16:05.157Z,7.87
2019-02-24T09:18:36.596Z,12.70
2019-02-24T09:21:10.610Z,20.30
2019-02-24T09:23:41.765Z,7.70
2019-02-24T09:26:14.458Z,13.33
2019-02-24T09:28:44.928Z,12.20
2019-02-24T09:31:15.372Z,9.00
2019-02-24T09:33:46.167Z,10.73
2019-02-24T09:36:20.829Z,7.50
2019-02-24T09:38:53.141Z,11.93
2019-02-24T09:41:26.484Z,10.67
2019-02-24T09:43:57.471Z,9.80
2019-02-24T09:46:28.307Z,8.35
2019-02-24T09:48:59.399Z,9.30
2019-02-24T09:51:31.039Z,11.43
2019-02-24T09:54:01.620Z,11.47
2019-02-24T09:56:31.982Z,8.97
2019-02-24T09:59:02.514Z,10.73
2019-02-24T10:01:36.688Z,11.53
2019-02-24T10:04:08.431Z,10.60
2019-02-24T10:06:39.960Z,10.73
2019-02-24T10:09:13.024Z,12.37
2019-02-24T10:11:44.901Z,11.53
2019-02-24T10:14:19.225Z,12.07
2019-02-24T10:16:53.644Z,8.27
2019-02-24T13:15:21.517Z,9.50
2019-02-24T13:17:53.254Z,7.77
2019-02-24T13:20:24.023Z,6.90
2019-02-24T13:22:56.195Z,9.73
2019-02-24T13:25:26.621Z,9.83
2019-02-24T13:28:01.598Z,10.47
2019-02-24T13:30:38.463Z,14.00
2019-02-24T13:33:09.080Z,7.83
2019-02-24T13:35:40.653Z,9.73
2019-02-24T13:38:11.193Z,12.03
2019-02-24T13:40:41.808Z,13.70
2019-02-24T13:43:12.305Z,9.27
2019-02-24T13:45:42.866Z,12.95
2019-02-24T13:48:17.105Z,12.03
2019-02-24T13:50:49.303Z,17.67
2019-02-24T13:53:20.110Z,10.87
2019-02-24T13:55:50.660Z,21.67
2019-02-24T13:58:21.077Z,19.63
2019-02-24T14:00:51.748Z,22.20
2019-02-24T14:03:22.203Z,19.07
2019-02-24T14:05:52.872Z,20.87
2019-02-24T14:08:23.517Z,26.65
2019-02-24T14:10:54.586Z,17.00
2019-02-24T14:13:25.204Z,18.60
2019-02-24T14:15:55.671Z,22.60
2019-02-24T14:18:26.177Z,26.03
2019-02-24T14:20:56.580Z,26.83
2019-02-24T14:23:27.252Z,22.50
2019-02-24T14:26:00.866Z,19.67
2019-02-24T14:28:33.945Z,20.92
2019-02-24T14:31:06.121Z,25.60
2019-02-24T14:33:42.260Z,18.10
2019-02-24T14:36:12.789Z,23.67
2019-02-24T14:38:44.761Z,23.57
2019-02-24T14:41:15.333Z,19.53
2019-02-24T14:43:45.882Z,23.93
2019-02-24T14:46:16.208Z,24.93
2019-02-24T14:48:47.730Z,18.53
2019-02-24T14:51:18.279Z,16.63
2019-02-24T14:53:50.603Z,17.47
2019-02-24T15:59:52.116Z,26.03
2019-02-24T16:02:24.147Z,29.70
2019-02-24T16:04:54.683Z,30.40
2019-02-24T16:07:25.949Z,33.67
2019-02-24T16:09:57.372Z,36.70
2019-02-24T16:12:29.513Z,29.67
2019-02-24T16:15:02.015Z,30.13
2019-02-24T16:17:32.436Z,33.07
2019-02-24T16:20:03.038Z,44.13
2019-02-24T16:22:33.451Z,40.03
2019-02-24T16:25:04.930Z,38.13
2019-02-24T16:27:35.890Z,31.53
2019-02-24T16:30:12.504Z,30.20
2019-02-24T16:32:44.833Z,29.90
2019-02-24T16:35:17.015Z,30.60
2019-02-24T16:37:53.497Z,28.23
2019-02-24T16:40:28.483Z,30.13
2019-02-24T16:42:58.956Z,30.97
2019-02-24T16:45:29.502Z,28.27
2019-02-24T16:47:59.975Z,33.53
2019-02-24T16:50:30.769Z,28.63
2019-02-24T16:53:01.157Z,32.07
2019-02-24T16:55:31.925Z,27.00
2019-02-24T16:58:02.455Z,27.00
2019-02-24T17:00:37.706Z,26.00
2019-02-24T17:03:08.134Z,31.50
2019-02-24T17:05:41.375Z,26.87
2019-02-24T17:08:11.873Z,39.30
2019-02-24T17:10:42.442Z,35.10
2019-02-24T17:13:12.869Z,26.47
2019-02-24T17:15:43.310Z,37.07
2019-02-24T17:18:16.520Z,28.33
2019-02-24T17:20:46.999Z,38.27
2019-02-24T17:23:18.936Z,40.80
2019-02-24T17:25:49.797Z,43.43
2019-02-24T17:28:21.924Z,47.87
2019-02-24T17:30:52.511Z,44.13
2019-02-24T17:33:29.959Z,46.63
2019-02-24T17:35:58.796Z,58.80
2019-02-24T17:38:29.332Z,41.40
2019-02-24T17:40:59.779Z,41.43
2019-02-24T17:43:30.204Z,43.70
2019-02-24T17:46:00.719Z,37.37
2019-02-24T17:48:32.721Z,44.73
2019-02-24T17:51:21.306Z,33.73
2019-02-24T17:53:50.738Z,35.53
2019-02-24T17:56:26.803Z,27.90
2019-02-24T17:58:58.226Z,33.67
2019-02-24T18:01:38.078Z,34.63
2019-02-24T18:09:45.855Z,30.73
2019-02-24T18:12:20.577Z,26.67
2019-02-24T18:14:59.711Z,27.30
2019-02-24T18:17:37.575Z,28.90
2019-02-24T18:20:13.769Z,28.90
2019-02-24T18:25:35.472Z,36.23
2019-02-24T18:28:19.292Z,31.53
2019-02-24T18:34:03.287Z,31.27
2019-02-24T18:36:41.618Z,36.60
2019-02-24T18:39:19.515Z,30.67
2019-02-24T18:45:01.156Z,39.45
2019-02-24T18:47:31.970Z,28.43
2019-02-24T18:50:04.675Z,26.80
2019-02-24T18:52:37.380Z,23.83
2019-02-24T18:55:15.537Z,25.50
2019-02-24T18:57:52.853Z,24.73
2019-02-24T19:03:45.488Z,20.53
2019-02-24T19:06:16.383Z,21.13
2019-02-24T19:08:54.779Z,16.73
2019-02-24T19:11:34.946Z,22.27
2019-02-24T19:15:02.767Z,16.37
2019-02-24T19:17:27.890Z,18.60
2019-02-24T19:20:02.392Z,17.27
2019-02-24T19:22:31.384Z,19.67
2019-02-24T19:25:04.096Z,22.33
2019-02-24T19:27:35.087Z,23.90
2019-02-24T19:30:10.648Z,21.50
2019-02-24T19:32:55.207Z,24.53
2019-02-24T19:35:39.584Z,20.93
2019-02-24T19:38:10.057Z,27.00
2019-02-24T19:40:51.827Z,19.07
2019-02-24T19:43:22.249Z,20.57
2019-02-24T19:55:34.158Z,18.73
2019-02-24T19:58:04.732Z,20.10
2019-02-24T20:00:35.185Z,21.40
2019-02-24T20:03:11.630Z,25.47
2019-02-24T20:05:43.108Z,26.10
2019-02-24T20:08:15.173Z,19.93
2019-02-24T20:10:48.591Z,22.53
2019-02-24T20:13:19.153Z,22.13
2019-02-24T20:15:50.194Z,21.70
2019-02-24T20:18:20.667Z,22.63
2019-02-24T20:20:51.103Z,22.83
2019-02-24T20:23:21.528Z,22.27
2019-02-24T20:25:52.832Z,21.00
2019-02-24T20:28:23.613Z,22.27
2019-02-24T20:30:54.207Z,19.90
2019-02-24T20:34:12.057Z,18.73
2019-02-24T20:36:06.103Z,17.13
2019-02-24T20:38:42.633Z,25.27
2019-02-24T20:41:15.675Z,20.47
2019-02-24T20:43:46.255Z,20.33
2019-02-24T20:46:16.630Z,23.30
2019-02-24T20:48:47.170Z,21.60
2019-02-24T20:51:17.719Z,38.67
2019-02-24T20:53:48.312Z,42.23
2019-02-24T20:56:18.785Z,33.67
2019-02-24T20:58:52.021Z,24.87
2019-02-24T21:01:22.387Z,24.53
2019-02-24T21:03:52.965Z,23.85
2019-02-24T21:06:27.257Z,25.47
2019-02-24T21:12:32.513Z,27.87
2019-02-24T21:15:08.796Z,25.37
2019-02-24T21:17:39.657Z,21.80
2019-02-24T21:20:15.899Z,42.90
2019-02-24T21:22:46.463Z,23.93
2019-02-24T21:25:17.015Z,25.20
2019-02-24T21:27:54.735Z,22.50
2019-02-24T21:30:25.368Z,25.30
2019-02-24T21:32:55.812Z,22.87
2019-02-24T21:35:26.280Z,23.33
2019-02-24T21:38:01.936Z,27.70
2019-02-24T21:40:32.316Z,26.60
2019-02-24T21:43:02.820Z,24.47
2019-02-24T21:45:33.273Z,25.03
2019-02-24T21:48:03.664Z,22.70
2019-02-24T21:50:34.081Z,30.47
2019-02-24T21:53:04.493Z,27.57
2019-02-24T21:55:34.958Z,25.45
2019-02-24T21:58:06.512Z,30.40
2019-02-24T22:00:36.964Z,28.80
2019-02-24T22:03:07.363Z,29.67
2019-02-24T22:05:37.790Z,32.67
2019-02-24T22:08:08.224Z,24.27
2019-02-24T22:10:38.583Z,18.80
2019-02-24T22:13:09.035Z,23.00
2019-02-24T22:15:39.396Z,19.83
2019-02-24T22:18:11.119Z,21.90
2019-02-24T22:20:41.516Z,24.40
2019-02-24T22:23:14.219Z,73.77
2019-02-24T22:25:44.594Z,27.20
2019-02-24T22:28:15.003Z,22.73
2019-02-24T22:30:45.435Z,18.87
2019-02-24T22:33:15.789Z,16.90
2019-02-24T22:35:46.271Z,20.53
2019-02-24T22:38:16.670Z,13.93
2019-02-24T22:40:54.370Z,15.73
2019-02-24T22:43:21.779Z,16.50
2019-02-24T22:45:52.226Z,13.23
2019-02-24T22:48:22.612Z,16.43
2019-02-24T22:50:53.099Z,17.67
2019-02-24T22:53:23.508Z,14.47
2019-02-24T22:55:53.928Z,16.33
2019-02-24T22:58:24.303Z,12.03
2019-02-24T23:00:58.779Z,14.87
2019-02-24T23:03:31.499Z,15.93
2019-02-24T23:06:01.918Z,17.23
2019-02-24T23:08:32.367Z,14.27
2019-02-24T23:11:02.780Z,19.37
2019-02-24T23:13:33.206Z,17.67
2019-02-24T23:16:03.624Z,21.43
2019-02-24T23:18:34.098Z,16.17
2019-02-24T23:21:04.558Z,17.73
2019-02-24T23:23:34.910Z,14.60
2019-02-24T23:26:05.370Z,14.80
2019-02-24T23:28:35.764Z,18.57
2019-02-24T23:31:07.232Z,19.00
2019-02-24T23:33:37.614Z,21.05
2019-02-24T23:36:08.065Z,20.30
2019-02-24T23:38:38.371Z,17.63
2019-02-24T23:41:08.751Z,18.17
2019-02-24T23:43:39.176Z,17.57
2019-02-24T23:46:09.569Z,16.67
2019-02-24T23:48:40.072Z,19.00
2019-02-24T23:51:10.505Z,20.43
2019-02-24T23:53:42.544Z,17.53
2019-02-24T23:56:12.949Z,16.70
2019-02-24T23:58:43.340Z,16.60
